Time;durP1;ratioP1;P1;durP2;ratioP2;P2;SDS_P1;SDS_P2;PMS_P1;PMS_P2;Temp;Humidity;BMP_temperature;BMP_pressure;BME280_temperature;BME280_humidity;BME280_pressure;Samples;Min_cycle;Max_cycle;Signal;HPM_P1;HPM_P2
2021/01/04 00:00:20;;;;;;;10.88;4.90;;;;;;;-3.77;96.53;101529.06;4949124;28;20062;-62
2021/01/04 00:03:49;;;;;;;10.93;5.32;;;;;;;-3.75;96.86;101532.50;4991006;28;20777;-62
2021/01/04 00:06:38;;;;;;;10.70;5.68;;;;;;;-3.78;97.62;101540.13;4983598;28;20142;-62
2021/01/04 00:09:58;;;;;;;13.30;6.72;;;;;;;-3.79;97.23;101537.59;4989538;28;20058;-63
2021/01/04 00:12:56;;;;;;;12.60;6.72;;;;;;;-3.82;96.67;101535.84;4990903;28;20153;-62
2021/01/04 00:16:18;;;;;;;11.93;5.78;;;;;;;-3.82;96.98;101542.66;4991369;28;20748;-62
2021/01/04 00:19:19;;;;;;;10.73;5.68;;;;;;;-3.87;97.21;101546.03;4984197;28;20050;-62
2021/01/04 00:22:33;;;;;;;11.98;5.97;;;;;;;-3.89;96.54;101547.72;4991524;28;20050;-62
2021/01/04 00:25:51;;;;;;;11.20;5.70;;;;;;;-3.90;96.58;101556.22;4991438;28;20074;-61
2021/01/04 00:28:38;;;;;;;7.60;4.30;;;;;;;-3.89;97.36;101549.44;4991460;28;20489;-61
2021/01/04 00:31:32;;;;;;;12.27;5.60;;;;;;;-3.90;97.46;101551.09;4991404;28;20054;-61
2021/01/04 00:34:30;;;;;;;13.93;5.80;;;;;;;-3.91;97.04;101563.88;4991012;28;20047;-62
2021/01/04 00:37:26;;;;;;;12.60;6.13;;;;;;;-3.95;96.73;101559.56;4991182;28;20101;-62
2021/01/04 00:40:44;;;;;;;9.45;4.38;;;;;;;-3.96;96.33;101563.84;4991368;28;20054;-62
2021/01/04 00:43:55;;;;;;;14.68;6.15;;;;;;;-4.01;96.03;101565.50;4993993;28;20085;-62
2021/01/04 00:46:48;;;;;;;11.00;5.50;;;;;;;-3.98;96.56;101564.69;4997817;28;20109;-62
2021/01/04 00:49:36;;;;;;;13.95;7.00;;;;;;;-4.01;97.04;101568.06;4997636;28;20066;-64
2021/01/04 00:52:40;;;;;;;14.43;6.55;;;;;;;-3.99;97.59;101568.06;4997520;28;20038;-61
2021/01/04 00:56:11;;;;;;;11.68;5.85;;;;;;;-4.01;96.39;101567.19;4996838;28;20050;-62
2021/01/04 00:59:23;;;;;;;12.65;6.38;;;;;;;-4.06;96.88;101567.16;4985087;28;20058;-63
2021/01/04 01:02:16;;;;;;;12.30;6.20;;;;;;;-4.07;96.60;101569.72;4991830;28;20148;-61
2021/01/04 01:05:36;;;;;;;12.43;5.88;;;;;;;-4.04;97.33;101577.38;4995476;28;20108;-61
2021/01/04 01:08:27;;;;;;;12.38;6.15;;;;;;;-4.04;96.95;101569.72;4997179;28;20145;-62
2021/01/04 01:11:20;;;;;;;12.77;5.88;;;;;;;-4.04;97.65;101580.78;4996578;28;20461;-62
2021/01/04 01:14:19;;;;;;;12.88;5.95;;;;;;;-4.05;97.09;101576.53;4982345;28;20116;-62
2021/01/04 01:17:27;;;;;;;12.73;5.75;;;;;;;-4.03;97.53;101571.44;4995769;28;20050;-62
2021/01/04 01:20:17;;;;;;;13.20;7.03;;;;;;;-4.02;97.61;101578.25;4994990;28;20061;-63
2021/01/04 01:23:07;;;;;;;13.88;6.70;;;;;;;-4.01;97.13;101574.88;4995316;28;20093;-62
2021/01/04 01:26:13;;;;;;;11.60;5.28;;;;;;;-4.00;97.09;101577.41;4995200;28;20660;-62
2021/01/04 01:29:30;;;;;;;16.15;6.68;;;;;;;-4.02;97.55;101576.56;4995772;28;20402;-62
2021/01/04 01:32:28;;;;;;;11.55;6.32;;;;;;;-4.03;97.17;101587.63;4995697;28;20113;-62
2021/01/04 01:35:34;;;;;;;11.02;5.57;;;;;;;-4.04;96.57;101590.16;4995185;28;20097;-62
2021/01/04 01:38:59;;;;;;;12.35;6.35;;;;;;;-4.04;96.76;101590.16;4995840;28;20065;-62
2021/01/04 01:41:53;;;;;;;12.68;6.50;;;;;;;-4.08;97.14;101596.94;4995984;28;20051;-62
2021/01/04 01:45:15;;;;;;;10.90;5.50;;;;;;;-4.05;97.17;101596.09;4995598;28;20109;-62
2021/01/04 01:48:04;;;;;;;15.85;6.85;;;;;;;-4.06;96.74;101609.72;4995402;28;20057;-62
2021/01/04 01:50:56;;;;;;;10.45;5.50;;;;;;;-4.06;96.85;101604.63;4995583;28;20062;-62
2021/01/04 01:54:09;;;;;;;14.65;7.43;;;;;;;-4.09;96.92;101600.31;4995537;28;20097;-61
2021/01/04 01:56:55;;;;;;;13.85;6.25;;;;;;;-4.09;96.53;101613.09;4989341;28;20568;-62
2021/01/04 02:00:02;;;;;;;12.90;6.22;;;;;;;-4.07;96.50;101615.69;4992542;28;20050;-62
2021/01/04 02:03:00;;;;;;;14.75;6.90;;;;;;;-4.07;96.96;101616.53;4992521;28;20057;-61
2021/01/04 02:06:15;;;;;;;10.77;5.78;;;;;;;-4.06;96.34;101619.94;4989240;28;20051;-62
2021/01/04 02:09:15;;;;;;;11.23;5.97;;;;;;;-4.04;96.55;101621.66;4992558;28;20117;-62
2021/01/04 02:12:12;;;;;;;12.35;6.07;;;;;;;-4.10;97.35;101608.84;5005863;28;20053;-62
2021/01/04 02:14:58;;;;;;;12.77;5.78;;;;;;;-4.06;96.71;101622.50;4991808;28;20054;-62
2021/01/04 02:18:06;;;;;;;12.98;5.60;;;;;;;-4.07;96.56;101613.97;4992346;28;20085;-61
2021/01/04 02:21:34;;;;;;;12.55;6.88;;;;;;;-4.08;96.68;101619.06;4989168;28;20405;-62
2021/01/04 02:24:23;;;;;;;10.98;5.78;;;;;;;-4.15;96.33;101620.72;4992026;28;20505;-61
2021/01/04 02:27:17;;;;;;;11.75;6.10;;;;;;;-4.15;96.84;101623.25;4992074;28;20564;-63
2021/01/04 02:30:05;;;;;;;12.10;5.95;;;;;;;-4.13;96.32;101619.00;4992024;28;20505;-61
2021/01/04 02:32:52;;;;;;;11.32;6.20;;;;;;;-4.16;96.20;101619.84;4992055;28;20108;-61
2021/01/04 02:35:40;;;;;;;9.85;5.28;;;;;;;-4.17;95.73;101624.94;4991966;28;20092;-62
2021/01/04 02:38:35;;;;;;;12.10;6.63;;;;;;;-4.34;96.36;101621.34;5005168;28;20145;-61
2021/01/04 02:41:22;;;;;;;10.45;4.82;;;;;;;-4.22;96.16;101626.59;4991911;28;20129;-62
2021/01/04 02:44:08;;;;;;;10.90;5.82;;;;;;;-4.22;96.82;101624.91;4991323;28;20073;-62
2021/01/04 02:47:27;;;;;;;12.57;6.03;;;;;;;-4.23;96.08;101624.88;4991684;28;20121;-62
2021/01/04 02:50:59;;;;;;;12.10;6.45;;;;;;;-4.26;95.97;101622.31;4980543;28;20353;-62
2021/01/04 02:54:04;;;;;;;9.93;5.32;;;;;;;-4.30;96.17;101625.66;4991442;28;20089;-62
2021/01/04 02:56:59;;;;;;;10.15;5.18;;;;;;;-4.31;96.74;101632.47;4991103;28;20079;-62
2021/01/04 02:59:58;;;;;;;9.80;5.15;;;;;;;-4.35;96.41;101637.50;4991623;28;20482;-61
2021/01/04 03:02:49;;;;;;;9.10;5.63;;;;;;;-4.30;96.84;101636.72;4991097;28;20042;-62
2021/01/04 03:05:37;;;;;;;9.75;5.38;;;;;;;-4.31;95.89;101644.38;5003632;28;20046;-61
2021/01/04 03:08:24;;;;;;;9.70;5.00;;;;;;;-4.29;97.38;101648.66;4987896;28;20058;-61
2021/01/04 03:11:15;;;;;;;9.50;5.25;;;;;;;-4.25;96.64;101647.84;4989822;28;20054;-61
2021/01/04 03:14:25;;;;;;;10.15;5.43;;;;;;;-4.26;95.97;101663.16;4991621;28;20053;-61
2021/01/04 03:17:32;;;;;;;10.07;5.50;;;;;;;-4.26;96.26;101668.28;4992447;28;20047;-62
2021/01/04 03:20:22;;;;;;;7.85;4.55;;;;;;;-4.32;96.29;101669.06;4992337;28;20074;-63
2021/01/04 03:23:09;;;;;;;8.98;4.63;;;;;;;-4.27;96.64;101666.53;4992163;28;20117;-63
2021/01/04 03:26:05;;;;;;;10.85;4.93;;;;;;;-4.35;96.22;101663.91;4992376;28;20128;-61
2021/01/04 03:28:52;;;;;;;9.02;5.05;;;;;;;-4.34;96.08;101665.63;4992410;28;20050;-62
2021/01/04 03:31:39;;;;;;;8.93;4.47;;;;;;;-4.33;96.15;101664.75;5005608;28;20108;-62
2021/01/04 03:34:26;;;;;;;8.57;4.65;;;;;;;-4.35;96.13;101660.50;4992166;28;20089;-62
2021/01/04 03:37:12;;;;;;;9.40;4.63;;;;;;;-4.34;96.43;101669.88;4991978;28;20445;-62
2021/01/04 03:39:59;;;;;;;9.68;4.75;;;;;;;-4.47;95.27;101667.16;5004428;28;20120;-62
2021/01/04 03:42:45;;;;;;;8.88;4.05;;;;;;;-4.43;96.16;101668.91;4990288;28;20054;-62
2021/01/04 03:45:32;;;;;;;9.57;4.60;;;;;;;-4.42;96.37;101668.06;4990311;28;20047;-64
2021/01/04 03:48:18;;;;;;;7.60;4.68;;;;;;;-4.42;96.18;101674.88;4990606;28;20050;-61
2021/01/04 03:51:05;;;;;;;11.60;5.40;;;;;;;-4.42;96.22;101677.41;4990155;28;20058;-62
2021/01/04 03:53:51;;;;;;;7.32;4.10;;;;;;;-4.40;96.17;101675.75;4989548;28;20528;-62
2021/01/04 03:56:38;;;;;;;8.57;4.47;;;;;;;-4.44;95.79;101681.66;4976956;28;20038;-62
2021/01/04 03:59:24;;;;;;;8.00;4.13;;;;;;;-4.42;96.03;101683.38;4990554;28;20142;-62
2021/01/04 04:02:11;;;;;;;7.90;3.70;;;;;;;-4.43;95.94;101684.22;4990126;28;20444;-62
2021/01/04 04:04:57;;;;;;;7.90;4.25;;;;;;;-4.44;96.33;101689.31;4989856;28;20050;-62
2021/01/04 04:07:45;;;;;;;8.23;4.05;;;;;;;-4.42;96.81;101691.03;4989877;28;20057;-61
2021/01/04 04:10:31;;;;;;;8.02;4.38;;;;;;;-4.44;96.42;101694.44;4989526;28;20046;-62
2021/01/04 04:13:18;;;;;;;6.68;3.97;;;;;;;-4.43;96.25;101696.13;4989718;28;20062;-63
2021/01/04 04:16:05;;;;;;;8.95;4.40;;;;;;;-4.44;96.79;101696.97;4989521;28;20441;-65
2021/01/04 04:18:51;;;;;;;9.95;4.30;;;;;;;-4.50;96.20;101700.31;5002756;28;20481;-61
2021/01/04 04:21:37;;;;;;;7.97;4.57;;;;;;;-4.50;96.85;101712.22;4990130;28;20093;-61
2021/01/04 04:24:24;;;;;;;9.15;4.40;;;;;;;-4.50;96.89;101707.97;4989585;28;20670;-61
2021/01/04 04:27:12;;;;;;;8.82;4.63;;;;;;;-4.52;96.72;101712.19;4985543;28;20054;-62
2021/01/04 04:29:58;;;;;;;8.75;4.90;;;;;;;-4.57;96.00;101715.53;4989536;28;20047;-61
2021/01/04 04:32:45;;;;;;;7.18;4.03;;;;;;;-4.55;96.37;101714.72;4990096;28;20509;-61
2021/01/04 04:35:31;;;;;;;9.90;4.50;;;;;;;-4.57;96.53;101710.41;4988823;28;20054;-62
2021/01/04 04:38:18;;;;;;;9.93;4.45;;;;;;;-4.60;96.11;101712.91;4989023;28;20101;-63
2021/01/04 04:41:05;;;;;;;8.05;4.72;;;;;;;-4.64;95.92;101712.91;4989714;28;20457;-62
2021/01/04 04:44:00;;;;;;;7.78;3.95;;;;;;;-4.57;95.93;101724.03;4989318;28;20445;-61
2021/01/04 04:46:52;;;;;;;7.20;4.20;;;;;;;-4.61;96.64;101721.41;4989939;28;20047;-62
2021/01/04 04:49:47;;;;;;;6.95;4.00;;;;;;;-4.56;96.39;101732.53;4989486;28;20058;-61
2021/01/04 04:52:40;;;;;;;6.78;3.85;;;;;;;-4.53;96.41;101730.91;4989739;28;20548;-62
2021/01/04 04:55:39;;;;;;;7.57;4.07;;;;;;;-4.52;96.42;101729.19;4988777;28;20059;-62
2021/01/04 04:58:28;;;;;;;7.60;3.92;;;;;;;-4.51;96.69;101730.91;5003336;28;20061;-62
2021/01/04 05:01:19;;;;;;;7.63;3.88;;;;;;;-4.49;96.45;101729.25;4989768;28;20053;-62
2021/01/04 05:04:29;;;;;;;7.00;4.25;;;;;;;-4.52;95.71;101727.50;4988853;28;20074;-61
2021/01/04 05:07:37;;;;;;;6.75;3.50;;;;;;;-4.49;96.06;101724.16;4988913;28;20161;-62
2021/01/04 05:10:32;;;;;;;8.02;3.72;;;;;;;-4.52;96.18;101734.31;4989423;28;20136;-62
2021/01/04 05:13:29;;;;;;;7.25;3.88;;;;;;;-4.49;96.52;101735.22;4988489;28;20078;-63
2021/01/04 05:16:21;;;;;;;7.47;4.35;;;;;;;-4.51;95.97;101734.34;4986373;28;20097;-61
2021/01/04 05:19:35;;;;;;;6.50;3.75;;;;;;;-4.50;96.03;101737.75;4986292;28;20145;-61
2021/01/04 05:22:40;;;;;;;7.33;3.93;;;;;;;-4.52;96.10;101742.81;4988139;28;20078;-61
2021/01/04 05:25:30;;;;;;;6.93;3.67;;;;;;;-4.54;96.15;101749.63;4988928;28;20335;-62
2021/01/04 05:28:41;;;;;;;8.95;4.32;;;;;;;-4.56;95.78;101738.50;4986692;28;20058;-62
2021/01/04 05:31:55;;;;;;;6.68;3.92;;;;;;;-4.53;96.21;101738.56;4991246;28;20570;-62
2021/01/04 05:34:51;;;;;;;9.15;4.38;;;;;;;-4.54;96.21;101741.09;4992478;28;20078;-62
2021/01/04 05:38:28;;;;;;;5.85;3.70;;;;;;;-4.54;96.07;101744.50;4992518;28;20142;-62
2021/01/04 05:41:25;;;;;;;8.82;4.45;;;;;;;-4.53;96.40;101746.22;4970486;28;20051;-61
2021/01/04 05:44:22;;;;;;;7.50;4.45;;;;;;;-4.50;96.65;101753.06;4989948;28;20113;-62
2021/01/04 05:47:22;;;;;;;7.90;4.32;;;;;;;-4.51;96.02;101743.69;4992607;28;20108;-62
2021/01/04 05:50:17;;;;;;;8.73;3.75;;;;;;;-4.53;95.64;101743.66;4992126;28;20057;-63
2021/01/04 05:53:03;;;;;;;5.95;3.70;;;;;;;-4.55;95.79;101744.50;5006126;28;20054;-63
2021/01/04 05:55:58;;;;;;;7.72;3.90;;;;;;;-4.54;95.76;101747.06;4991308;28;20146;-62
2021/01/04 05:58:44;;;;;;;7.93;4.05;;;;;;;-4.54;95.95;101743.66;4991113;28;20124;-61
2021/01/04 06:01:31;;;;;;;6.88;3.88;;;;;;;-4.52;96.26;101749.63;4990743;28;20142;-62
2021/01/04 06:04:26;;;;;;;6.93;3.88;;;;;;;-4.54;95.96;101743.66;4991088;28;20133;-62
2021/01/04 06:07:22;;;;;;;;;;;;;;;-4.59;95.46;101743.59;4991449;28;20047;-62
2021/01/04 06:10:19;;;;;;;5.93;3.05;;;;;;;-4.60;95.61;101744.44;5004397;28;19980;-63
2021/01/04 06:13:25;;;;;;;8.18;4.10;;;;;;;-4.63;95.82;101749.47;4989218;28;20078;-62
2021/01/04 06:16:15;;;;;;;6.15;3.53;;;;;;;-4.65;95.79;101756.28;4990291;28;20113;-62
2021/01/04 06:19:12;;;;;;;10.65;6.10;;;;;;;-4.68;95.53;101757.06;4990404;28;20655;-61
2021/01/04 06:22:07;;;;;;;7.88;4.35;;;;;;;-4.74;95.65;101759.53;4994862;28;20054;-62
2021/01/04 06:25:00;;;;;;;7.80;3.90;;;;;;;-4.82;94.94;101761.09;4988197;28;20577;-62
2021/01/04 06:27:48;;;;;;;16.95;7.95;;;;;;;-4.88;94.68;101771.22;4983795;28;20050;-62
2021/01/04 06:30:37;;;;;;;8.30;4.57;;;;;;;-4.95;95.38;101772.81;4986862;28;20058;-62
2021/01/04 06:33:29;;;;;;;9.15;4.85;;;;;;;-5.02;94.58;101762.50;4989568;28;20054;-62
2021/01/04 06:36:17;;;;;;;12.82;6.63;;;;;;;-5.09;94.32;101766.63;4989528;28;20125;-62
2021/01/04 06:39:18;;;;;;;7.07;3.97;;;;;;;-5.15;94.27;101769.06;5003878;28;20190;-62
2021/01/04 06:42:11;;;;;;;7.25;3.90;;;;;;;-5.26;94.02;101775.69;4989476;28;20054;-62
2021/01/04 06:45:16;;;;;;;6.78;3.35;;;;;;;-5.26;95.33;101773.16;4989129;28;20054;-62
2021/01/04 06:48:11;;;;;;;;;;;;;;;-5.34;94.54;101765.34;4990156;28;20145;-61
2021/01/04 06:51:01;;;;;;;7.22;3.97;;;;;;;-5.38;94.59;101767.81;4983016;28;19925;-62
2021/01/04 06:54:21;;;;;;;5.20;3.45;;;;;;;-5.41;94.62;101766.94;4989931;28;20379;-63
2021/01/04 06:57:35;;;;;;;5.70;3.20;;;;;;;-5.41;94.54;101773.75;4994521;28;20058;-62
2021/01/04 07:00:26;;;;;;;5.43;3.00;;;;;;;-5.42;94.81;101777.09;4989647;28;20058;-63
2021/01/04 07:03:31;;;;;;;6.07;3.42;;;;;;;-5.41;94.77;101771.19;4978510;28;20046;-62
2021/01/04 07:07:02;;;;;;;6.85;3.55;;;;;;;-5.47;94.64;101771.91;4989628;28;20050;-62
2021/01/04 07:10:13;;;;;;;5.15;3.05;;;;;;;-5.47;95.14;101778.69;4936460;28;20046;-62
2021/01/04 07:13:18;;;;;;;6.80;3.92;;;;;;;-5.48;95.37;101777.00;4990492;28;20046;-62
2021/01/04 07:16:31;;;;;;;7.00;3.85;;;;;;;-5.53;94.62;101782.00;4989431;28;20046;-62
2021/01/04 07:19:32;;;;;;;8.65;4.63;;;;;;;-5.56;94.63;101791.28;4978840;28;20054;-61
2021/01/04 07:22:40;;;;;;;6.95;3.42;;;;;;;-5.62;94.58;101794.56;4977955;28;20512;-62
2021/01/04 07:25:59;;;;;;;5.90;3.58;;;;;;;-5.61;94.87;101787.78;4974704;28;20058;-62
2021/01/04 07:29:06;;;;;;;6.85;3.80;;;;;;;-5.64;94.89;101797.94;4978528;28;20116;-62
2021/01/04 07:31:53;;;;;;;5.43;2.67;;;;;;;-5.70;94.95;101803.75;4988028;28;20060;-62
2021/01/04 07:34:55;;;;;;;7.63;3.80;;;;;;;-5.67;95.65;101804.69;4984776;28;20065;-63
2021/01/04 07:38:19;;;;;;;10.93;5.63;;;;;;;-5.74;94.75;101807.09;4988347;28;20050;-61
2021/01/04 07:41:18;;;;;;;7.88;4.38;;;;;;;-5.81;94.03;101807.78;4981304;28;20058;-62
2021/01/04 07:44:45;;;;;;;6.45;3.50;;;;;;;-5.85;94.19;101816.19;4978816;28;20108;-61
2021/01/04 07:48:18;;;;;;;6.93;3.78;;;;;;;-5.88;94.73;101818.69;4982417;28;20120;-62
2021/01/04 07:51:29;;;;;;;9.55;3.88;;;;;;;-5.87;94.78;101821.25;4988480;28;20137;-62
2021/01/04 07:54:34;;;;;;;6.80;3.58;;;;;;;-5.91;94.91;101816.94;4982897;28;20060;-62
2021/01/04 07:57:33;;;;;;;7.63;3.65;;;;;;;-5.89;95.47;101822.03;4988725;28;20502;-62
2021/01/04 08:00:32;;;;;;;6.20;3.22;;;;;;;-5.89;94.33;101812.72;4986042;28;20054;-62
2021/01/04 08:03:24;;;;;;;4.63;2.83;;;;;;;-5.96;94.24;101821.09;4986136;28;20050;-62
2021/01/04 08:06:44;;;;;;;7.57;3.72;;;;;;;-5.98;93.84;101830.38;4986998;28;20046;-61
2021/01/04 08:09:58;;;;;;;7.15;3.95;;;;;;;-5.98;94.28;101832.91;4986931;28;20089;-62
2021/01/04 08:13:04;;;;;;;;;;;;;;;-6.04;94.02;101835.34;4986404;28;20050;-62
2021/01/04 08:15:59;;;;;;;6.15;3.40;;;;;;;-6.05;94.41;101831.94;4985395;28;20436;-63
2021/01/04 08:18:49;;;;;;;6.22;3.22;;;;;;;-6.08;93.86;101839.50;5002022;28;20042;-64
2021/01/04 08:21:45;;;;;;;4.07;2.63;;;;;;;-6.09;93.90;101839.50;4987292;28;20176;-61
2021/01/04 08:24:42;;;;;;;7.28;3.40;;;;;;;-6.09;93.83;101842.88;4986091;28;20541;-62
2021/01/04 08:27:44;;;;;;;5.82;2.58;;;;;;;-6.12;93.55;101845.38;4986510;28;20051;-61
2021/01/04 08:30:37;;;;;;;4.70;3.00;;;;;;;-6.19;93.08;101846.06;4986554;28;20104;-62
2021/01/04 08:33:38;;;;;;;5.57;3.20;;;;;;;-6.25;92.99;101846.78;4987593;28;20050;-61
2021/01/04 08:36:27;;;;;;;6.88;4.30;;;;;;;-6.34;93.08;101851.69;4986652;28;20054;-62
2021/01/04 08:39:29;;;;;;;6.03;3.45;;;;;;;-6.38;92.72;101849.03;4987186;28;20166;-62
2021/01/04 08:42:20;;;;;;;6.82;3.50;;;;;;;-6.48;92.45;101855.59;4987241;28;20082;-62
2021/01/04 08:45:13;;;;;;;5.50;3.22;;;;;;;-6.58;91.85;101856.19;4986178;28;20050;-61
2021/01/04 08:48:10;;;;;;;5.63;3.50;;;;;;;-6.67;92.02;101858.50;4981395;28;20054;-62
2021/01/04 08:51:13;;;;;;;5.85;3.28;;;;;;;-6.84;90.84;101858.94;5001339;28;20066;-63
2021/01/04 08:54:20;;;;;;;7.13;3.65;;;;;;;-6.92;92.95;101862.16;4982336;28;20525;-61
2021/01/04 08:57:15;;;;;;;6.40;3.63;;;;;;;-7.01;92.75;101861.06;4986181;28;20058;-61
2021/01/04 09:00:15;;;;;;;5.45;2.97;;;;;;;-7.08;92.53;101868.50;4988303;28;20109;-62
2021/01/04 09:03:02;;;;;;;6.22;3.63;;;;;;;-7.09;93.23;101867.63;4990463;28;20097;-62
2021/01/04 09:05:48;;;;;;;6.22;3.08;;;;;;;-7.15;93.23;101856.47;4990777;28;20078;-63
2021/01/04 09:08:35;;;;;;;6.32;3.55;;;;;;;-7.22;93.40;101863.91;4991479;28;20142;-62
2021/01/04 09:11:22;;;;;;;4.63;2.45;;;;;;;-7.24;93.03;101860.47;5004356;28;20058;-61
2021/01/04 09:14:24;;;;;;;5.95;2.80;;;;;;;-7.30;92.51;101864.53;4991232;28;20086;-64
2021/01/04 09:17:19;;;;;;;5.15;2.78;;;;;;;-7.35;92.26;101858.47;4990908;28;20046;-62
2021/01/04 09:20:18;;;;;;;4.20;2.75;;;;;;;-7.42;91.91;101862.50;5004409;28;20057;-62
2021/01/04 09:23:30;;;;;;;4.55;2.53;;;;;;;-7.47;92.39;101861.53;4991333;28;20485;-64
2021/01/04 09:26:28;;;;;;;4.22;2.58;;;;;;;-7.47;92.54;101864.94;4991080;28;20453;-65
2021/01/04 09:29:24;;;;;;;4.72;2.65;;;;;;;-7.52;91.29;101858.84;4990075;28;20509;-64
2021/01/04 09:32:15;;;;;;;4.03;2.35;;;;;;;-7.47;91.02;101872.56;4990501;28;20057;-64
2021/01/04 09:35:03;;;;;;;5.03;2.95;;;;;;;-7.41;91.36;101869.31;4989992;28;20053;-64
2021/01/04 09:38:24;;;;;;;5.95;3.22;;;;;;;-7.27;90.71;101870.53;4990546;28;20486;-65
2021/01/04 09:41:12;;;;;;;4.10;2.67;;;;;;;-7.16;90.49;101868.31;4989740;28;20476;-66
2021/01/04 09:44:04;;;;;;;4.60;2.63;;;;;;;-7.12;88.22;101871.78;4989460;28;20846;-64
2021/01/04 09:47:00;;;;;;;5.03;2.38;;;;;;;-7.02;88.17;101858.50;4988153;28;20054;-65
2021/01/04 09:49:51;;;;;;;4.93;2.85;;;;;;;-6.98;88.99;101871.34;4993798;28;20524;-65
2021/01/04 09:52:57;;;;;;;5.10;2.42;;;;;;;-6.91;87.05;101874.03;4977618;28;20101;-64
2021/01/04 09:55:44;;;;;;;4.75;2.42;;;;;;;-6.92;87.94;101877.41;4991385;28;20055;-66
2021/01/04 09:58:31;;;;;;;4.38;3.28;;;;;;;-6.99;88.46;101878.91;4982801;28;20081;-65
2021/01/04 10:01:18;;;;;;;7.47;3.97;;;;;;;-6.96;88.12;101879.00;4982339;28;20070;-62
2021/01/04 10:04:05;;;;;;;4.32;2.70;;;;;;;-7.01;88.34;101875.47;4982946;28;20128;-62
2021/01/04 10:06:51;;;;;;;6.15;2.90;;;;;;;-6.96;88.79;101877.31;4982965;28;20046;-62
2021/01/04 10:09:42;;;;;;;6.75;3.63;;;;;;;-7.03;87.62;101874.56;4978488;28;20074;-62
2021/01/04 10:12:32;;;;;;;6.57;3.20;;;;;;;-6.96;88.13;101884.94;4995632;28;20501;-62
2021/01/04 10:15:29;;;;;;;5.28;2.70;;;;;;;-6.97;87.72;101885.75;4992001;28;20221;-63
2021/01/04 10:18:50;;;;;;;9.93;4.53;;;;;;;-7.06;87.03;101884.66;4992050;28;20054;-61
2021/01/04 10:22:16;;;;;;;7.93;3.88;;;;;;;-7.03;87.42;101882.19;4978658;28;20125;-62
2021/01/04 10:25:08;;;;;;;4.25;2.42;;;;;;;-7.08;88.85;101889.69;4994324;28;20456;-62
2021/01/04 10:27:58;;;;;;;7.82;3.55;;;;;;;-7.18;87.61;101886.88;4991211;28;20093;-63
2021/01/04 10:30:46;;;;;;;6.88;3.42;;;;;;;-7.30;87.22;101885.72;4991373;28;20165;-62
2021/01/04 10:33:37;;;;;;;6.93;3.60;;;;;;;-7.37;86.12;101890.59;4990983;28;20073;-63
2021/01/04 10:36:25;;;;;;;6.78;3.72;;;;;;;-7.33;88.09;101887.31;4995425;28;20121;-65
2021/01/04 10:39:20;;;;;;;7.28;3.65;;;;;;;-7.45;87.92;101889.50;4990403;28;20070;-63
2021/01/04 10:42:21;;;;;;;6.63;3.60;;;;;;;-7.42;88.51;101900.63;4991352;28;20141;-63
2021/01/04 10:45:20;;;;;;;5.15;2.85;;;;;;;-7.43;88.52;101896.38;4982334;28;20105;-62
2021/01/04 10:48:18;;;;;;;4.05;2.10;;;;;;;-7.46;89.06;101893.72;4980831;28;20096;-62
2021/01/04 10:51:19;;;;;;;5.18;2.50;;;;;;;-7.55;88.02;101894.34;4989179;28;20062;-61
2021/01/04 10:54:13;;;;;;;5.28;2.67;;;;;;;-7.73;88.24;101893.81;4990979;28;20050;-62
2021/01/04 10:57:12;;;;;;;;;;;;;;;-7.95;86.76;101897.41;4991660;28;20053;-62
2021/01/04 11:00:02;;;;;;;5.22;2.50;;;;;;;-7.99;88.17;101900.66;4978142;28;20052;-62
2021/01/04 11:02:51;;;;;;;3.83;2.03;;;;;;;-8.03;88.54;101898.84;4991229;28;20050;-62
2021/01/04 11:05:40;;;;;;;5.82;2.80;;;;;;;-8.17;89.21;101898.41;4990929;28;20129;-63
2021/01/04 11:08:31;;;;;;;4.45;2.38;;;;;;;-8.21;89.04;101899.16;4991186;28;20426;-62
2021/01/04 11:11:34;;;;;;;4.53;2.60;;;;;;;-8.23;88.78;101900.75;4991291;28;20058;-62
2021/01/04 11:14:23;;;;;;;4.68;2.72;;;;;;;-8.27;90.16;101898.94;4990839;28;20054;-62
2021/01/04 11:17:27;;;;;;;6.97;3.00;;;;;;;-8.32;89.10;101911.47;4990880;28;20053;-65
2021/01/04 11:20:15;;;;;;;5.88;3.10;;;;;;;-8.30;90.90;101914.09;4991313;28;20042;-64
2021/01/04 11:23:06;;;;;;;4.05;2.75;;;;;;;-8.43;89.13;101904.38;4990869;28;20138;-65
2021/01/04 11:25:52;;;;;;;4.32;2.72;;;;;;;-8.43;90.65;101907.78;4990351;28;20093;-65
2021/01/04 11:28:39;;;;;;;5.72;3.00;;;;;;;-8.49;89.60;101905.06;5003351;28;20050;-65
2021/01/04 11:31:32;;;;;;;5.95;3.08;;;;;;;-8.58;87.48;101914.91;4990551;28;20406;-65
2021/01/04 11:34:18;;;;;;;5.00;2.45;;;;;;;-8.59;89.21;101914.03;4990663;28;20055;-66
2021/01/04 11:37:04;;;;;;;6.07;3.20;;;;;;;-8.61;89.87;101919.88;4990253;28;20050;-65
2021/01/04 11:39:52;;;;;;;4.78;2.75;;;;;;;-8.72;89.11;101922.06;4990887;28;20129;-66
2021/01/04 11:42:39;;;;;;;5.15;2.58;;;;;;;-8.84;89.56;101919.09;4990831;28;20050;-64
2021/01/04 11:45:25;;;;;;;4.72;2.10;;;;;;;-8.99;87.51;101916.91;4990567;28;20129;-64
2021/01/04 11:48:12;;;;;;;4.82;2.90;;;;;;;-9.13;89.19;101923.16;4990569;28;20078;-64
2021/01/04 11:50:58;;;;;;;5.05;2.65;;;;;;;-9.24;88.21;101924.47;4978721;28;20058;-64
2021/01/04 11:53:44;;;;;;;4.55;2.35;;;;;;;-9.35;88.12;101927.47;4976113;28;20057;-64
2021/01/04 11:56:31;;;;;;;4.35;2.53;;;;;;;-9.49;87.75;101920.16;4978646;28;20054;-64
2021/01/04 11:59:18;;;;;;;4.65;2.83;;;;;;;-9.64;88.36;101921.31;4990601;28;20058;-64
2021/01/04 12:02:06;;;;;;;5.15;2.65;;;;;;;-9.73;89.32;101922.66;4969109;28;20137;-64
2021/01/04 12:04:52;;;;;;;5.47;3.28;;;;;;;-9.78;88.79;101934.28;4982432;28;20050;-65
2021/01/04 12:07:39;;;;;;;4.20;2.40;;;;;;;-9.85;87.91;101931.53;4979355;28;20513;-64
2021/01/04 12:10:27;;;;;;;5.90;2.90;;;;;;;-9.92;88.73;101933.75;4988528;28;20043;-65
2021/01/04 12:13:13;;;;;;;7.15;3.55;;;;;;;-9.94;89.82;101936.22;4981123;28;20160;-65
2021/01/04 12:16:00;;;;;;;8.05;3.55;;;;;;;-10.01;87.79;101930.88;4988176;28;20042;-65
2021/01/04 12:18:46;;;;;;;6.72;3.05;;;;;;;-10.09;88.20;101928.91;4978619;28;20633;-64
2021/01/04 12:21:34;;;;;;;5.38;2.55;;;;;;;-10.10;88.99;101933.91;4976591;28;20050;-65
2021/01/04 12:24:20;;;;;;;4.03;2.25;;;;;;;-10.30;86.58;101939.88;4972118;28;20065;-64
2021/01/04 12:27:09;;;;;;;4.72;2.70;;;;;;;-10.43;87.61;101936.00;4977400;28;20106;-64
2021/01/04 12:29:56;;;;;;;5.25;2.70;;;;;;;-10.61;88.51;101939.50;4974640;28;20046;-64
2021/01/04 12:32:43;;;;;;;5.13;3.35;;;;;;;-10.68;88.34;101929.94;4982154;28;20100;-64
2021/01/04 12:35:29;;;;;;;6.07;3.30;;;;;;;-10.70;88.72;101934.06;4976632;28;20512;-64
2021/01/04 12:38:16;;;;;;;5.88;3.30;;;;;;;-10.72;89.79;101935.69;4981126;28;20054;-65
2021/01/04 12:41:02;;;;;;;4.63;2.88;;;;;;;-10.77;89.34;101939.69;4977903;28;20050;-65
2021/01/04 12:43:50;;;;;;;5.82;2.53;;;;;;;-10.89;88.00;101934.09;4979412;28;20124;-65
2021/01/04 12:46:49;;;;;;;4.70;2.60;;;;;;;-10.98;88.55;101938.75;4979074;28;20146;-65
2021/01/04 12:49:35;;;;;;;4.32;2.17;;;;;;;-11.02;89.44;101936.88;4980227;28;20506;-66
2021/01/04 12:52:22;;;;;;;5.57;2.80;;;;;;;-11.11;88.70;101930.69;4988952;28;20083;-65
2021/01/04 12:55:09;;;;;;;6.00;2.60;;;;;;;-11.17;88.12;101932.91;5002392;28;20140;-65
2021/01/04 12:57:56;;;;;;;6.53;3.05;;;;;;;-11.20;88.78;101926.84;4989378;28;20726;-65
2021/01/04 13:00:44;;;;;;;6.57;3.03;;;;;;;-11.26;89.63;101922.41;4989649;28;20057;-67
2021/01/04 13:03:30;;;;;;;8.60;4.97;;;;;;;-11.36;87.75;101925.34;4989086;28;20050;-65
2021/01/04 13:06:23;;;;;;;11.82;6.72;;;;;;;-11.39;88.37;101928.59;4989543;28;20116;-65
2021/01/04 13:09:10;;;;;;;5.57;2.95;;;;;;;-11.47;89.13;101934.09;5003654;28;20470;-66
2021/01/04 13:11:56;;;;;;;6.38;2.70;;;;;;;-11.51;89.84;101928.06;4989223;28;20058;-65
2021/01/04 13:14:46;;;;;;;6.30;3.47;;;;;;;-11.61;89.54;101926.78;4989308;28;20124;-66
2021/01/04 13:17:33;;;;;;;5.65;2.90;;;;;;;-11.60;90.63;101932.69;4989699;28;20523;-64
2021/01/04 13:20:20;;;;;;;7.13;4.47;;;;;;;-11.67;89.88;101934.09;4987295;28;20146;-64
2021/01/04 13:23:06;;;;;;;13.85;8.50;;;;;;;-11.73;89.58;101938.81;4987831;28;20050;-64
2021/01/04 13:25:53;;;;;;;9.35;5.60;;;;;;;-11.78;89.30;101941.94;4987488;28;20061;-65
2021/01/04 13:28:43;;;;;;;5.65;2.75;;;;;;;-11.85;89.44;101939.97;4985900;28;20138;-63
2021/01/04 13:31:29;;;;;;;3.70;2.00;;;;;;;-11.92;89.99;101944.72;4986414;28;20054;-63
2021/01/04 13:34:16;;;;;;;3.55;1.80;;;;;;;-11.94;89.88;101945.44;4986423;28;20501;-62
2021/01/04 13:37:04;;;;;;;3.58;1.98;;;;;;;-12.01;90.16;101944.31;4985964;28;20046;-62